sensor_id;sensor_type;location;lat;lon;timestamp;P1;durP1;ratioP1;P2;durP2;ratioP2
68234;SDS011;55052;52.056;5.296;2023-05-10T00:01:46;35.65;;;20.85;;
68234;SDS011;55052;52.056;5.296;2023-05-10T00:04:12;37.90;;;22.25;;
68234;SDS011;55052;52.056;5.296;2023-05-10T00:06:40;39.95;;;21.88;;
68234;SDS011;55052;52.056;5.296;2023-05-10T00:09:06;36.70;;;21.98;;
68234;SDS011;55052;52.056;5.296;2023-05-10T00:11:33;37.25;;;22.52;;
68234;SDS011;55052;52.056;5.296;2023-05-10T00:14:00;34.53;;;21.65;;
68234;SDS011;55052;52.056;5.296;2023-05-10T00:16:27;33.15;;;20.73;;
68234;SDS011;55052;52.056;5.296;2023-05-10T00:18:54;37.03;;;21.00;;
68234;SDS011;55052;52.056;5.296;2023-05-10T00:21:22;36.53;;;21.58;;
68234;SDS011;55052;52.056;5.296;2023-05-10T00:23:49;34.95;;;21.50;;
68234;SDS011;55052;52.056;5.296;2023-05-10T00:26:16;36.92;;;21.33;;
68234;SDS011;55052;52.056;5.296;2023-05-10T00:28:42;40.53;;;22.42;;
68234;SDS011;55052;52.056;5.296;2023-05-10T00:31:09;38.25;;;22.15;;
68234;SDS011;55052;52.056;5.296;2023-05-10T00:33:36;35.60;;;21.73;;
68234;SDS011;55052;52.056;5.296;2023-05-10T00:36:03;35.13;;;20.38;;
68234;SDS011;55052;52.056;5.296;2023-05-10T00:38:30;37.80;;;21.20;;
68234;SDS011;55052;52.056;5.296;2023-05-10T00:40:57;35.30;;;21.50;;
68234;SDS011;55052;52.056;5.296;2023-05-10T00:43:24;35.65;;;20.08;;
68234;SDS011;55052;52.056;5.296;2023-05-10T00:45:50;35.20;;;20.85;;
68234;SDS011;55052;52.056;5.296;2023-05-10T00:48:18;38.40;;;21.60;;
68234;SDS011;55052;52.056;5.296;2023-05-10T00:50:45;40.40;;;21.50;;
68234;SDS011;55052;52.056;5.296;2023-05-10T00:53:12;39.75;;;21.80;;
68234;SDS011;55052;52.056;5.296;2023-05-10T00:55:40;40.42;;;21.08;;
68234;SDS011;55052;52.056;5.296;2023-05-10T00:58:07;38.42;;;21.67;;
68234;SDS011;55052;52.056;5.296;2023-05-10T01:00:34;38.42;;;21.85;;
68234;SDS011;55052;52.056;5.296;2023-05-10T01:03:03;36.03;;;20.67;;
68234;SDS011;55052;52.056;5.296;2023-05-10T01:05:30;35.75;;;20.83;;
68234;SDS011;55052;52.056;5.296;2023-05-10T01:07:58;36.20;;;20.52;;
68234;SDS011;55052;52.056;5.296;2023-05-10T01:10:24;37.40;;;20.85;;
68234;SDS011;55052;52.056;5.296;2023-05-10T01:12:51;37.78;;;20.50;;
68234;SDS011;55052;52.056;5.296;2023-05-10T01:15:18;39.67;;;20.45;;
68234;SDS011;55052;52.056;5.296;2023-05-10T01:17:47;42.63;;;21.08;;
68234;SDS011;55052;52.056;5.296;2023-05-10T01:20:15;41.58;;;21.77;;
68234;SDS011;55052;52.056;5.296;2023-05-10T01:28:13;43.15;;;22.70;;
68234;SDS011;55052;52.056;5.296;2023-05-10T01:38:50;42.83;;;22.05;;
68234;SDS011;55052;52.056;5.296;2023-05-10T01:46:48;45.55;;;22.35;;
68234;SDS011;55052;52.056;5.296;2023-05-10T01:49:39;45.55;;;24.05;;
68234;SDS011;55052;52.056;5.296;2023-05-10T01:52:12;44.90;;;23.02;;
68234;SDS011;55052;52.056;5.296;2023-05-10T01:54:43;47.17;;;23.70;;
68234;SDS011;55052;52.056;5.296;2023-05-10T01:57:15;46.67;;;23.77;;
68234;SDS011;55052;52.056;5.296;2023-05-10T01:59:44;50.28;;;25.05;;
68234;SDS011;55052;52.056;5.296;2023-05-10T02:02:14;51.40;;;24.65;;
68234;SDS011;55052;52.056;5.296;2023-05-10T02:04:41;51.00;;;25.42;;
68234;SDS011;55052;52.056;5.296;2023-05-10T02:07:09;51.80;;;25.25;;
68234;SDS011;55052;52.056;5.296;2023-05-10T02:09:36;52.42;;;25.15;;
68234;SDS011;55052;52.056;5.296;2023-05-10T02:12:05;55.92;;;26.50;;
68234;SDS011;55052;52.056;5.296;2023-05-10T02:14:34;56.65;;;26.40;;
68234;SDS011;55052;52.056;5.296;2023-05-10T02:17:04;59.60;;;29.00;;
68234;SDS011;55052;52.056;5.296;2023-05-10T02:22:00;54.25;;;25.85;;
68234;SDS011;55052;52.056;5.296;2023-05-10T02:24:28;61.95;;;28.98;;
68234;SDS011;55052;52.056;5.296;2023-05-10T02:26:56;68.13;;;30.02;;
68234;SDS011;55052;52.056;5.296;2023-05-10T02:29:24;65.32;;;30.00;;
68234;SDS011;55052;52.056;5.296;2023-05-10T02:31:53;67.72;;;30.42;;
68234;SDS011;55052;52.056;5.296;2023-05-10T02:34:21;72.45;;;30.88;;
68234;SDS011;55052;52.056;5.296;2023-05-10T02:36:52;73.45;;;32.03;;
68234;SDS011;55052;52.056;5.296;2023-05-10T02:39:20;70.28;;;31.77;;
68234;SDS011;55052;52.056;5.296;2023-05-10T02:41:48;68.07;;;30.80;;
68234;SDS011;55052;52.056;5.296;2023-05-10T02:44:17;75.30;;;32.25;;
68234;SDS011;55052;52.056;5.296;2023-05-10T02:46:46;70.70;;;31.92;;
68234;SDS011;55052;52.056;5.296;2023-05-10T02:49:14;71.63;;;32.22;;
68234;SDS011;55052;52.056;5.296;2023-05-10T02:51:42;80.25;;;31.67;;
68234;SDS011;55052;52.056;5.296;2023-05-10T02:54:15;70.05;;;30.50;;
68234;SDS011;55052;52.056;5.296;2023-05-10T02:56:50;73.72;;;31.73;;
68234;SDS011;55052;52.056;5.296;2023-05-10T02:59:22;68.03;;;29.63;;
68234;SDS011;55052;52.056;5.296;2023-05-10T03:01:49;72.93;;;30.98;;
68234;SDS011;55052;52.056;5.296;2023-05-10T03:04:19;73.85;;;31.50;;
68234;SDS011;55052;52.056;5.296;2023-05-10T03:06:46;71.30;;;31.38;;
68234;SDS011;55052;52.056;5.296;2023-05-10T03:09:13;66.75;;;30.42;;
68234;SDS011;55052;52.056;5.296;2023-05-10T03:12:45;69.80;;;29.50;;
68234;SDS011;55052;52.056;5.296;2023-05-10T03:17:30;67.20;;;29.98;;
68234;SDS011;55052;52.056;5.296;2023-05-10T03:20:21;60.30;;;28.35;;
68234;SDS011;55052;52.056;5.296;2023-05-10T03:22:50;60.92;;;28.17;;
68234;SDS011;55052;52.056;5.296;2023-05-10T03:25:21;58.22;;;27.17;;
68234;SDS011;55052;52.056;5.296;2023-05-10T03:27:49;61.75;;;27.63;;
68234;SDS011;55052;52.056;5.296;2023-05-10T03:30:18;63.90;;;28.70;;
68234;SDS011;55052;52.056;5.296;2023-05-10T03:32:46;61.85;;;28.13;;
68234;SDS011;55052;52.056;5.296;2023-05-10T03:35:13;60.10;;;27.42;;
68234;SDS011;55052;52.056;5.296;2023-05-10T03:37:40;64.45;;;26.27;;
68234;SDS011;55052;52.056;5.296;2023-05-10T03:40:07;64.03;;;28.00;;
68234;SDS011;55052;52.056;5.296;2023-05-10T03:42:35;60.65;;;26.42;;
68234;SDS011;55052;52.056;5.296;2023-05-10T03:45:02;63.95;;;25.52;;
68234;SDS011;55052;52.056;5.296;2023-05-10T03:47:28;56.40;;;25.23;;
68234;SDS011;55052;52.056;5.296;2023-05-10T03:49:56;58.45;;;26.25;;
68234;SDS011;55052;52.056;5.296;2023-05-10T03:52:22;58.97;;;25.65;;
68234;SDS011;55052;52.056;5.296;2023-05-10T03:54:49;57.13;;;25.75;;
68234;SDS011;55052;52.056;5.296;2023-05-10T03:57:16;63.95;;;26.38;;
68234;SDS011;55052;52.056;5.296;2023-05-10T03:59:43;62.47;;;25.67;;
68234;SDS011;55052;52.056;5.296;2023-05-10T04:02:09;58.50;;;25.33;;
68234;SDS011;55052;52.056;5.296;2023-05-10T04:04:36;63.00;;;27.23;;
68234;SDS011;55052;52.056;5.296;2023-05-10T04:07:04;57.55;;;24.95;;
68234;SDS011;55052;52.056;5.296;2023-05-10T04:09:31;60.63;;;26.08;;
68234;SDS011;55052;52.056;5.296;2023-05-10T04:11:59;62.78;;;26.15;;
68234;SDS011;55052;52.056;5.296;2023-05-10T04:14:28;58.58;;;25.27;;
68234;SDS011;55052;52.056;5.296;2023-05-10T04:16:55;58.88;;;26.73;;
68234;SDS011;55052;52.056;5.296;2023-05-10T04:19:22;63.50;;;25.23;;
68234;SDS011;55052;52.056;5.296;2023-05-10T04:21:49;61.55;;;25.02;;
68234;SDS011;55052;52.056;5.296;2023-05-10T04:24:16;66.82;;;25.98;;
68234;SDS011;55052;52.056;5.296;2023-05-10T04:26:43;70.10;;;27.45;;
68234;SDS011;55052;52.056;5.296;2023-05-10T04:29:09;68.68;;;27.08;;
68234;SDS011;55052;52.056;5.296;2023-05-10T04:31:36;70.45;;;28.80;;
68234;SDS011;55052;52.056;5.296;2023-05-10T04:34:03;72.60;;;28.90;;
68234;SDS011;55052;52.056;5.296;2023-05-10T04:36:29;74.85;;;29.13;;
68234;SDS011;55052;52.056;5.296;2023-05-10T04:38:58;66.35;;;26.65;;
68234;SDS011;55052;52.056;5.296;2023-05-10T04:41:25;78.85;;;30.08;;
68234;SDS011;55052;52.056;5.296;2023-05-10T04:43:52;78.47;;;28.70;;
68234;SDS011;55052;52.056;5.296;2023-05-10T04:46:18;80.10;;;30.25;;
68234;SDS011;55052;52.056;5.296;2023-05-10T04:48:45;70.50;;;30.83;;
68234;SDS011;55052;52.056;5.296;2023-05-10T04:51:12;73.95;;;31.30;;
68234;SDS011;55052;52.056;5.296;2023-05-10T04:53:39;74.40;;;31.42;;
68234;SDS011;55052;52.056;5.296;2023-05-10T04:56:16;77.15;;;32.05;;
68234;SDS011;55052;52.056;5.296;2023-05-10T04:58:43;83.03;;;32.15;;
68234;SDS011;55052;52.056;5.296;2023-05-10T05:01:09;77.95;;;32.05;;
68234;SDS011;55052;52.056;5.296;2023-05-10T05:03:36;78.93;;;31.08;;
68234;SDS011;55052;52.056;5.296;2023-05-10T05:06:03;78.72;;;30.40;;
68234;SDS011;55052;52.056;5.296;2023-05-10T05:08:30;81.78;;;33.15;;
68234;SDS011;55052;52.056;5.296;2023-05-10T05:10:57;70.22;;;30.48;;
68234;SDS011;55052;52.056;5.296;2023-05-10T05:13:25;72.28;;;31.27;;
68234;SDS011;55052;52.056;5.296;2023-05-10T05:15:52;67.85;;;29.77;;
68234;SDS011;55052;52.056;5.296;2023-05-10T05:18:19;74.90;;;31.80;;
68234;SDS011;55052;52.056;5.296;2023-05-10T05:20:46;74.15;;;31.30;;
68234;SDS011;55052;52.056;5.296;2023-05-10T05:23:13;74.60;;;30.65;;
68234;SDS011;55052;52.056;5.296;2023-05-10T05:25:39;72.57;;;29.50;;
68234;SDS011;55052;52.056;5.296;2023-05-10T05:28:06;79.13;;;32.20;;
68234;SDS011;55052;52.056;5.296;2023-05-10T05:30:34;70.78;;;31.02;;
68234;SDS011;55052;52.056;5.296;2023-05-10T05:33:00;70.40;;;31.83;;
68234;SDS011;55052;52.056;5.296;2023-05-10T05:35:27;71.32;;;28.92;;
68234;SDS011;55052;52.056;5.296;2023-05-10T05:37:54;70.95;;;31.42;;
68234;SDS011;55052;52.056;5.296;2023-05-10T05:40:21;63.03;;;29.10;;
68234;SDS011;55052;52.056;5.296;2023-05-10T05:42:48;64.78;;;28.70;;
68234;SDS011;55052;52.056;5.296;2023-05-10T05:45:15;62.15;;;28.17;;
68234;SDS011;55052;52.056;5.296;2023-05-10T05:47:43;60.30;;;27.67;;
68234;SDS011;55052;52.056;5.296;2023-05-10T05:50:10;58.42;;;27.50;;
68234;SDS011;55052;52.056;5.296;2023-05-10T05:52:37;59.50;;;30.27;;
68234;SDS011;55052;52.056;5.296;2023-05-10T05:55:04;65.50;;;30.02;;
68234;SDS011;55052;52.056;5.296;2023-05-10T05:57:31;62.88;;;29.35;;
68234;SDS011;55052;52.056;5.296;2023-05-10T05:59:58;66.45;;;27.60;;
68234;SDS011;55052;52.056;5.296;2023-05-10T06:02:25;57.20;;;28.80;;
68234;SDS011;55052;52.056;5.296;2023-05-10T06:04:52;62.20;;;28.85;;
68234;SDS011;55052;52.056;5.296;2023-05-10T06:07:19;53.33;;;26.85;;
68234;SDS011;55052;52.056;5.296;2023-05-10T06:09:46;54.35;;;25.80;;
68234;SDS011;55052;52.056;5.296;2023-05-10T06:12:13;52.25;;;26.40;;
68234;SDS011;55052;52.056;5.296;2023-05-10T06:14:39;55.50;;;26.85;;
68234;SDS011;55052;52.056;5.296;2023-05-10T06:17:06;55.22;;;28.15;;
68234;SDS011;55052;52.056;5.296;2023-05-10T06:19:33;50.25;;;25.88;;
68234;SDS011;55052;52.056;5.296;2023-05-10T06:22:00;54.13;;;25.98;;
68234;SDS011;55052;52.056;5.296;2023-05-10T06:24:27;62.85;;;26.98;;
68234;SDS011;55052;52.056;5.296;2023-05-10T06:26:53;51.65;;;24.77;;
68234;SDS011;55052;52.056;5.296;2023-05-10T06:29:20;52.70;;;25.83;;
68234;SDS011;55052;52.056;5.296;2023-05-10T06:31:47;45.65;;;24.25;;
68234;SDS011;55052;52.056;5.296;2023-05-10T06:34:14;50.97;;;25.52;;
68234;SDS011;55052;52.056;5.296;2023-05-10T06:36:41;52.83;;;25.98;;
68234;SDS011;55052;52.056;5.296;2023-05-10T06:39:08;50.45;;;24.58;;
68234;SDS011;55052;52.056;5.296;2023-05-10T06:41:35;50.53;;;23.60;;
68234;SDS011;55052;52.056;5.296;2023-05-10T06:44:02;48.15;;;24.85;;
68234;SDS011;55052;52.056;5.296;2023-05-10T06:46:30;43.88;;;22.17;;
68234;SDS011;55052;52.056;5.296;2023-05-10T06:48:56;42.83;;;22.60;;
68234;SDS011;55052;52.056;5.296;2023-05-10T06:51:23;40.15;;;20.88;;
68234;SDS011;55052;52.056;5.296;2023-05-10T06:53:50;35.42;;;18.92;;
68234;SDS011;55052;52.056;5.296;2023-05-10T06:56:17;31.40;;;16.05;;
68234;SDS011;55052;52.056;5.296;2023-05-10T06:58:44;30.92;;;15.75;;
68234;SDS011;55052;52.056;5.296;2023-05-10T07:01:11;28.05;;;14.40;;
68234;SDS011;55052;52.056;5.296;2023-05-10T07:03:37;22.90;;;12.82;;
68234;SDS011;55052;52.056;5.296;2023-05-10T07:06:04;20.20;;;10.30;;
68234;SDS011;55052;52.056;5.296;2023-05-10T07:08:41;21.08;;;11.25;;
68234;SDS011;55052;52.056;5.296;2023-05-10T07:11:07;19.75;;;11.20;;
68234;SDS011;55052;52.056;5.296;2023-05-10T07:13:34;18.58;;;10.98;;
68234;SDS011;55052;52.056;5.296;2023-05-10T07:16:02;18.67;;;10.30;;
68234;SDS011;55052;52.056;5.296;2023-05-10T07:18:29;17.80;;;10.20;;
68234;SDS011;55052;52.056;5.296;2023-05-10T07:20:56;18.08;;;9.32;;
68234;SDS011;55052;52.056;5.296;2023-05-10T07:23:23;19.00;;;9.70;;
68234;SDS011;55052;52.056;5.296;2023-05-10T07:25:50;19.63;;;9.85;;
68234;SDS011;55052;52.056;5.296;2023-05-10T07:28:18;16.45;;;9.82;;
68234;SDS011;55052;52.056;5.296;2023-05-10T07:30:45;19.10;;;10.02;;
68234;SDS011;55052;52.056;5.296;2023-05-10T07:33:13;16.77;;;9.40;;
68234;SDS011;55052;52.056;5.296;2023-05-10T07:35:40;16.20;;;8.07;;
68234;SDS011;55052;52.056;5.296;2023-05-10T07:38:07;13.07;;;7.82;;
68234;SDS011;55052;52.056;5.296;2023-05-10T07:40:34;15.35;;;8.48;;
68234;SDS011;55052;52.056;5.296;2023-05-10T07:43:00;16.05;;;7.60;;
68234;SDS011;55052;52.056;5.296;2023-05-10T07:45:28;14.85;;;7.88;;
68234;SDS011;55052;52.056;5.296;2023-05-10T07:47:55;13.70;;;7.70;;
68234;SDS011;55052;52.056;5.296;2023-05-10T07:50:22;12.45;;;7.50;;
68234;SDS011;55052;52.056;5.296;2023-05-10T07:52:49;15.73;;;8.35;;
68234;SDS011;55052;52.056;5.296;2023-05-10T07:55:15;14.98;;;8.57;;
68234;SDS011;55052;52.056;5.296;2023-05-10T07:57:45;16.83;;;8.70;;
68234;SDS011;55052;52.056;5.296;2023-05-10T08:00:16;15.10;;;7.97;;
68234;SDS011;55052;52.056;5.296;2023-05-10T08:02:44;15.52;;;8.02;;
68234;SDS011;55052;52.056;5.296;2023-05-10T08:05:11;15.23;;;8.00;;
68234;SDS011;55052;52.056;5.296;2023-05-10T08:07:38;18.73;;;8.43;;
68234;SDS011;55052;52.056;5.296;2023-05-10T08:10:05;14.50;;;7.82;;
68234;SDS011;55052;52.056;5.296;2023-05-10T08:12:33;14.80;;;8.32;;
68234;SDS011;55052;52.056;5.296;2023-05-10T08:14:59;14.85;;;8.48;;
68234;SDS011;55052;52.056;5.296;2023-05-10T08:17:26;14.80;;;8.10;;
68234;SDS011;55052;52.056;5.296;2023-05-10T08:19:53;17.85;;;8.45;;
68234;SDS011;55052;52.056;5.296;2023-05-10T08:22:20;16.67;;;9.40;;
68234;SDS011;55052;52.056;5.296;2023-05-10T08:24:47;16.70;;;9.45;;
68234;SDS011;55052;52.056;5.296;2023-05-10T08:27:14;16.75;;;9.35;;
68234;SDS011;55052;52.056;5.296;2023-05-10T08:29:41;15.77;;;8.50;;
68234;SDS011;55052;52.056;5.296;2023-05-10T08:32:15;14.63;;;8.27;;
68234;SDS011;55052;52.056;5.296;2023-05-10T08:34:42;14.82;;;8.68;;
68234;SDS011;55052;52.056;5.296;2023-05-10T08:37:09;15.57;;;8.35;;
68234;SDS011;55052;52.056;5.296;2023-05-10T08:39:39;15.45;;;8.30;;
68234;SDS011;55052;52.056;5.296;2023-05-10T08:42:06;16.92;;;8.32;;
68234;SDS011;55052;52.056;5.296;2023-05-10T08:44:34;15.68;;;8.88;;
68234;SDS011;55052;52.056;5.296;2023-05-10T08:47:04;19.08;;;8.65;;
68234;SDS011;55052;52.056;5.296;2023-05-10T08:49:33;16.45;;;9.25;;
68234;SDS011;55052;52.056;5.296;2023-05-10T08:52:02;15.52;;;9.05;;
68234;SDS011;55052;52.056;5.296;2023-05-10T08:54:31;15.05;;;8.77;;
68234;SDS011;55052;52.056;5.296;2023-05-10T08:56:58;17.08;;;8.73;;
68234;SDS011;55052;52.056;5.296;2023-05-10T08:59:25;14.80;;;8.43;;
68234;SDS011;55052;52.056;5.296;2023-05-10T09:01:53;16.10;;;8.20;;
68234;SDS011;55052;52.056;5.296;2023-05-10T09:04:23;17.33;;;8.95;;
68234;SDS011;55052;52.056;5.296;2023-05-10T09:06:51;17.67;;;9.10;;
68234;SDS011;55052;52.056;5.296;2023-05-10T09:09:18;15.25;;;8.50;;
68234;SDS011;55052;52.056;5.296;2023-05-10T09:11:46;14.68;;;9.07;;
68234;SDS011;55052;52.056;5.296;2023-05-10T09:14:13;17.40;;;8.55;;
68234;SDS011;55052;52.056;5.296;2023-05-10T09:16:42;16.73;;;8.52;;
68234;SDS011;55052;52.056;5.296;2023-05-10T09:19:09;14.25;;;8.05;;
68234;SDS011;55052;52.056;5.296;2023-05-10T09:21:36;13.88;;;8.27;;
68234;SDS011;55052;52.056;5.296;2023-05-10T09:24:05;16.27;;;8.35;;
68234;SDS011;55052;52.056;5.296;2023-05-10T09:26:33;16.95;;;8.43;;
68234;SDS011;55052;52.056;5.296;2023-05-10T09:29:02;14.43;;;8.52;;
68234;SDS011;55052;52.056;5.296;2023-05-10T09:31:42;15.27;;;8.27;;
68234;SDS011;55052;52.056;5.296;2023-05-10T09:36:36;14.13;;;8.75;;
68234;SDS011;55052;52.056;5.296;2023-05-10T09:39:15;12.95;;;7.88;;
68234;SDS011;55052;52.056;5.296;2023-05-10T09:41:42;13.77;;;7.85;;
68234;SDS011;55052;52.056;5.296;2023-05-10T09:44:09;14.32;;;8.43;;
68234;SDS011;55052;52.056;5.296;2023-05-10T09:46:36;15.93;;;9.50;;
68234;SDS011;55052;52.056;5.296;2023-05-10T09:49:03;14.52;;;8.18;;
68234;SDS011;55052;52.056;5.296;2023-05-10T09:51:31;16.88;;;8.50;;
68234;SDS011;55052;52.056;5.296;2023-05-10T09:56:41;15.65;;;9.07;;
68234;SDS011;55052;52.056;5.296;2023-05-10T09:59:11;14.35;;;7.75;;
68234;SDS011;55052;52.056;5.296;2023-05-10T10:01:39;16.27;;;8.10;;
68234;SDS011;55052;52.056;5.296;2023-05-10T10:04:07;16.48;;;8.35;;
68234;SDS011;55052;52.056;5.296;2023-05-10T10:06:36;15.05;;;7.80;;
68234;SDS011;55052;52.056;5.296;2023-05-10T10:09:04;15.85;;;7.97;;
68234;SDS011;55052;52.056;5.296;2023-05-10T10:11:33;14.13;;;8.93;;
68234;SDS011;55052;52.056;5.296;2023-05-10T10:14:02;13.40;;;7.90;;
68234;SDS011;55052;52.056;5.296;2023-05-10T10:16:29;14.68;;;8.20;;
68234;SDS011;55052;52.056;5.296;2023-05-10T10:18:57;13.68;;;7.63;;
68234;SDS011;55052;52.056;5.296;2023-05-10T10:21:24;10.75;;;6.30;;
68234;SDS011;55052;52.056;5.296;2023-05-10T10:23:52;12.50;;;6.55;;
68234;SDS011;55052;52.056;5.296;2023-05-10T10:26:19;10.68;;;6.47;;
68234;SDS011;55052;52.056;5.296;2023-05-10T10:28:49;12.20;;;7.15;;
68234;SDS011;55052;52.056;5.296;2023-05-10T10:31:28;14.02;;;7.13;;
68234;SDS011;55052;52.056;5.296;2023-05-10T10:34:06;10.35;;;6.15;;
68234;SDS011;55052;52.056;5.296;2023-05-10T10:36:47;13.45;;;6.43;;
68234;SDS011;55052;52.056;5.296;2023-05-10T10:39:14;8.98;;;5.45;;
68234;SDS011;55052;52.056;5.296;2023-05-10T10:41:49;8.65;;;5.22;;
68234;SDS011;55052;52.056;5.296;2023-05-10T10:44:24;10.35;;;5.82;;
68234;SDS011;55052;52.056;5.296;2023-05-10T10:52:13;9.32;;;5.32;;
68234;SDS011;55052;52.056;5.296;2023-05-10T10:54:49;8.50;;;5.13;;
68234;SDS011;55052;52.056;5.296;2023-05-10T10:57:18;8.77;;;4.90;;
68234;SDS011;55052;52.056;5.296;2023-05-10T10:59:46;8.98;;;5.40;;
68234;SDS011;55052;52.056;5.296;2023-05-10T11:04:59;10.50;;;5.60;;
68234;SDS011;55052;52.056;5.296;2023-05-10T11:07:26;11.98;;;5.75;;
68234;SDS011;55052;52.056;5.296;2023-05-10T11:09:53;9.00;;;5.90;;
68234;SDS011;55052;52.056;5.296;2023-05-10T11:12:20;12.80;;;5.80;;
68234;SDS011;55052;52.056;5.296;2023-05-10T11:14:49;9.80;;;5.47;;
68234;SDS011;55052;52.056;5.296;2023-05-10T11:17:21;10.45;;;5.45;;
68234;SDS011;55052;52.056;5.296;2023-05-10T11:20:05;9.75;;;5.47;;
68234;SDS011;55052;52.056;5.296;2023-05-10T11:22:49;9.25;;;5.13;;
68234;SDS011;55052;52.056;5.296;2023-05-10T11:25:19;11.73;;;5.47;;
68234;SDS011;55052;52.056;5.296;2023-05-10T11:27:52;9.75;;;5.05;;
68234;SDS011;55052;52.056;5.296;2023-05-10T11:30:18;8.75;;;5.43;;
68234;SDS011;55052;52.056;5.296;2023-05-10T11:32:46;7.65;;;4.95;;
68234;SDS011;55052;52.056;5.296;2023-05-10T11:35:13;7.53;;;5.00;;
68234;SDS011;55052;52.056;5.296;2023-05-10T11:37:41;11.32;;;5.97;;
68234;SDS011;55052;52.056;5.296;2023-05-10T11:40:10;11.70;;;5.82;;
68234;SDS011;55052;52.056;5.296;2023-05-10T11:42:37;11.48;;;5.07;;
68234;SDS011;55052;52.056;5.296;2023-05-10T11:45:04;8.70;;;4.88;;
68234;SDS011;55052;52.056;5.296;2023-05-10T11:47:32;8.02;;;4.78;;
68234;SDS011;55052;52.056;5.296;2023-05-10T11:49:59;10.38;;;5.03;;
68234;SDS011;55052;52.056;5.296;2023-05-10T11:52:26;10.35;;;5.53;;
68234;SDS011;55052;52.056;5.296;2023-05-10T11:54:53;9.18;;;5.00;;
68234;SDS011;55052;52.056;5.296;2023-05-10T11:57:25;8.95;;;4.68;;
68234;SDS011;55052;52.056;5.296;2023-05-10T11:59:53;10.18;;;4.57;;
68234;SDS011;55052;52.056;5.296;2023-05-10T12:02:22;8.57;;;3.90;;
68234;SDS011;55052;52.056;5.296;2023-05-10T12:04:50;11.63;;;4.20;;
68234;SDS011;55052;52.056;5.296;2023-05-10T12:07:17;11.55;;;4.78;;
68234;SDS011;55052;52.056;5.296;2023-05-10T12:09:44;7.72;;;4.35;;
68234;SDS011;55052;52.056;5.296;2023-05-10T12:12:34;8.73;;;4.82;;
68234;SDS011;55052;52.056;5.296;2023-05-10T12:15:05;9.48;;;5.07;;
68234;SDS011;55052;52.056;5.296;2023-05-10T12:17:56;8.30;;;4.63;;
68234;SDS011;55052;52.056;5.296;2023-05-10T12:20:24;9.05;;;5.18;;
68234;SDS011;55052;52.056;5.296;2023-05-10T12:22:54;9.65;;;5.60;;
68234;SDS011;55052;52.056;5.296;2023-05-10T12:25:29;9.57;;;5.03;;
68234;SDS011;55052;52.056;5.296;2023-05-10T12:27:57;10.57;;;4.60;;
68234;SDS011;55052;52.056;5.296;2023-05-10T12:30:28;9.98;;;5.55;;
68234;SDS011;55052;52.056;5.296;2023-05-10T12:33:29;8.48;;;5.60;;
68234;SDS011;55052;52.056;5.296;2023-05-10T12:35:50;10.38;;;5.60;;
68234;SDS011;55052;52.056;5.296;2023-05-10T12:38:25;9.00;;;5.65;;
68234;SDS011;55052;52.056;5.296;2023-05-10T12:40:58;6.93;;;5.25;;
68234;SDS011;55052;52.056;5.296;2023-05-10T12:43:26;8.65;;;5.10;;
68234;SDS011;55052;52.056;5.296;2023-05-10T12:45:53;7.85;;;5.53;;
68234;SDS011;55052;52.056;5.296;2023-05-10T12:48:20;8.65;;;6.32;;
68234;SDS011;55052;52.056;5.296;2023-05-10T12:50:47;10.63;;;6.88;;
68234;SDS011;55052;52.056;5.296;2023-05-10T12:53:14;9.05;;;6.45;;
68234;SDS011;55052;52.056;5.296;2023-05-10T12:55:42;9.55;;;6.25;;
68234;SDS011;55052;52.056;5.296;2023-05-10T12:58:09;10.98;;;7.10;;
68234;SDS011;55052;52.056;5.296;2023-05-10T13:00:46;9.25;;;6.80;;
68234;SDS011;55052;52.056;5.296;2023-05-10T13:03:13;9.10;;;6.32;;
68234;SDS011;55052;52.056;5.296;2023-05-10T13:05:41;10.57;;;6.68;;
68234;SDS011;55052;52.056;5.296;2023-05-10T13:08:07;16.15;;;6.50;;
68234;SDS011;55052;52.056;5.296;2023-05-10T13:10:34;12.75;;;6.70;;
68234;SDS011;55052;52.056;5.296;2023-05-10T13:13:01;14.02;;;6.07;;
68234;SDS011;55052;52.056;5.296;2023-05-10T13:15:28;11.50;;;5.65;;
68234;SDS011;55052;52.056;5.296;2023-05-10T13:17:55;12.57;;;6.18;;
68234;SDS011;55052;52.056;5.296;2023-05-10T13:20:22;10.20;;;5.53;;
68234;SDS011;55052;52.056;5.296;2023-05-10T13:22:49;9.30;;;5.45;;
68234;SDS011;55052;52.056;5.296;2023-05-10T13:25:17;13.90;;;6.72;;
68234;SDS011;55052;52.056;5.296;2023-05-10T13:27:44;11.90;;;6.53;;
68234;SDS011;55052;52.056;5.296;2023-05-10T13:30:11;13.25;;;6.28;;
68234;SDS011;55052;52.056;5.296;2023-05-10T13:32:38;11.75;;;6.75;;
68234;SDS011;55052;52.056;5.296;2023-05-10T13:35:05;11.88;;;6.50;;
68234;SDS011;55052;52.056;5.296;2023-05-10T13:37:32;12.75;;;6.95;;
68234;SDS011;55052;52.056;5.296;2023-05-10T13:40:01;16.58;;;7.93;;
68234;SDS011;55052;52.056;5.296;2023-05-10T13:42:28;14.80;;;8.00;;
68234;SDS011;55052;52.056;5.296;2023-05-10T13:44:55;14.95;;;8.00;;
68234;SDS011;55052;52.056;5.296;2023-05-10T13:47:22;17.00;;;7.97;;
68234;SDS011;55052;52.056;5.296;2023-05-10T13:49:49;14.38;;;8.20;;
68234;SDS011;55052;52.056;5.296;2023-05-10T13:52:15;17.48;;;9.02;;
68234;SDS011;55052;52.056;5.296;2023-05-10T13:54:42;15.23;;;8.55;;
68234;SDS011;55052;52.056;5.296;2023-05-10T13:57:09;15.55;;;8.60;;
68234;SDS011;55052;52.056;5.296;2023-05-10T13:59:38;16.42;;;8.38;;
68234;SDS011;55052;52.056;5.296;2023-05-10T14:02:04;15.52;;;8.52;;
68234;SDS011;55052;52.056;5.296;2023-05-10T14:04:32;18.20;;;9.05;;
68234;SDS011;55052;52.056;5.296;2023-05-10T14:07:01;17.90;;;9.57;;
68234;SDS011;55052;52.056;5.296;2023-05-10T14:09:28;19.52;;;9.73;;
68234;SDS011;55052;52.056;5.296;2023-05-10T14:11:55;16.10;;;10.10;;
68234;SDS011;55052;52.056;5.296;2023-05-10T14:14:22;19.42;;;9.68;;
68234;SDS011;55052;52.056;5.296;2023-05-10T14:16:48;21.50;;;10.60;;
68234;SDS011;55052;52.056;5.296;2023-05-10T14:19:15;18.42;;;9.50;;
68234;SDS011;55052;52.056;5.296;2023-05-10T14:21:42;22.17;;;10.77;;
68234;SDS011;55052;52.056;5.296;2023-05-10T14:24:09;17.55;;;9.23;;
68234;SDS011;55052;52.056;5.296;2023-05-10T14:26:36;19.15;;;9.55;;
68234;SDS011;55052;52.056;5.296;2023-05-10T14:29:03;16.63;;;9.02;;
68234;SDS011;55052;52.056;5.296;2023-05-10T14:31:29;17.25;;;9.75;;
68234;SDS011;55052;52.056;5.296;2023-05-10T14:33:56;19.95;;;9.93;;
68234;SDS011;55052;52.056;5.296;2023-05-10T14:36:23;17.48;;;9.15;;
68234;SDS011;55052;52.056;5.296;2023-05-10T14:38:50;18.20;;;9.20;;
68234;SDS011;55052;52.056;5.296;2023-05-10T14:41:17;18.83;;;10.50;;
68234;SDS011;55052;52.056;5.296;2023-05-10T14:43:44;16.35;;;9.55;;
68234;SDS011;55052;52.056;5.296;2023-05-10T14:46:11;15.85;;;9.07;;
68234;SDS011;55052;52.056;5.296;2023-05-10T14:48:38;16.13;;;9.55;;
68234;SDS011;55052;52.056;5.296;2023-05-10T14:51:05;18.20;;;9.50;;
68234;SDS011;55052;52.056;5.296;2023-05-10T14:53:32;16.88;;;9.50;;
68234;SDS011;55052;52.056;5.296;2023-05-10T14:55:59;15.38;;;8.52;;
68234;SDS011;55052;52.056;5.296;2023-05-10T14:58:27;17.58;;;8.88;;
68234;SDS011;55052;52.056;5.296;2023-05-10T15:00:54;15.60;;;8.57;;
68234;SDS011;55052;52.056;5.296;2023-05-10T15:03:21;13.90;;;8.30;;
68234;SDS011;55052;52.056;5.296;2023-05-10T15:05:49;15.30;;;7.80;;
68234;SDS011;55052;52.056;5.296;2023-05-10T15:08:16;16.05;;;8.63;;
68234;SDS011;55052;52.056;5.296;2023-05-10T15:10:42;14.38;;;7.88;;
68234;SDS011;55052;52.056;5.296;2023-05-10T15:13:09;13.00;;;7.57;;